Aviation Digital Data Service (ADDS)

Output produced by METARs form (2002 UTC 30 January 2015)
found at http://aviationweather.gov/adds/metars/
 
KCLT 301728Z 3018/3118 32015G25KT P6SM FEW050 
     FM302200 33008KT P6SM SKC 
     FM310300 30004KT P6SM SKC 
     FM311400 25005KT P6SM FEW250